Data for 08/27/2007

Time Sea-Level Adjusted Pressure Absolute Pressure Temperature Relative Humidity Dew Point   
(mb) (inHg) (mb) (inHg) (C) (F) (%) (C) (F)
00:05 1016 30 845 24.95 17 62.5 32 0.1 32.1
00:10 1016 30 845 24.95 17 62.5 30 -0.4 31.3
00:15 1016 30 845 24.95 17.1 62.8 31 -0.1 31.7
00:20 1016 30 845 24.95 17.1 62.8 30 -0.3 31.5
00:25 1016 30 845 24.95 17.2 63 30 -0.3 31.5
00:30 1016 30 845 24.95 17 62.6 31 -0.1 31.8
00:35 1016 30 845 24.95 16.8 62.2 31 -0.2 31.7
00:40 1016 30 845 24.95 16.4 61.5 34 0.5 32.8
00:45 1016 30 845 24.95 16.1 61 35 0.9 33.6
00:50 1016 30 845 24.95 16.1 61 32 -0.5 31.1
00:55 1016 30 846 24.98 16.3 61.3 31 -0.9 30.4
01:00 1016 30 845 24.95 16.5 61.6 31 -0.7 30.8
01:05 1016 30 845 24.95 16 60.9 33 -0.1 31.8
01:10 1016 30 845 24.95 15.5 59.8 34 -0.2 31.7
01:15 1016 30 845 24.95 15.3 59.5 34 -0.5 31.1
01:20 1016 30 846 24.98 15 59 35 -0.2 31.7
01:25 1016 30 846 24.98 14.7 58.5 35 -0.5 31.1
01:30 1016 30 846 24.98 14.7 58.4 34 -0.8 30.5
01:35 1016 30 846 24.98 14.8 58.7 35 -0.6 30.9
01:40 1016 30 846 24.98 14.7 58.5 35 -0.6 30.9
01:45 1016 30 846 24.98 14.6 58.2 35 -0.6 30.9
01:50 1016 30 846 24.98 14.5 58.1 35 -0.5 31
01:55 1016 30 846 24.98 14.4 58 35 -0.6 31
02:00 1016 30 846 24.98 14.3 57.7 36 -0.5 31
02:05 1016 30 846 24.98 14.1 57.3 37 -0.3 31.4
02:10 1016 30 846 24.98 14.1 57.4 37 -0.4 31.3
02:15 1017 30.03 846 24.98 14.1 57.4 37 -0.3 31.5
02:20 1017 30.03 846 24.98 14.1 57.3 37 -0.3 31.5
02:25 1017 30.03 846 24.98 13.9 57.1 37 -0.3 31.5
02:30 1017 30.03 846 24.98 13.9 57 38 -0.2 31.7
02:35 1017 30.03 846 24.98 13.8 56.8 37 -0.6 31
02:40 1017 30.03 846 24.98 13.9 57 37 -0.4 31.3
02:45 1017 30.03 846 24.98 13.8 56.9 38 -0 31.9
02:50 1017 30.03 846 24.98 13.2 55.7 42 0.7 33.3
02:55 1017 30.03 846 24.98 12.8 55.1 43 0.6 33.1
03:00 1017 30.03 846 24.98 12.7 54.9 42 0.2 32.4
03:05 1017 30.03 846 24.98 13.2 55.7 40 -0 31.9
03:10 1017 30.03 846 24.98 13.5 56.3 39 0 32.1
03:15 1017 30.03 846 24.98 13.7 56.6 38 -0.5 31.2
03:20 1016 30 846 24.98 13.7 56.6 39 0.1 32.3
03:25 1017 30.03 846 24.98 12.9 55.2 42 0.4 32.6
03:30 1017 30.03 846 24.98 12.4 54.2 44 0.6 33.1
03:35 1017 30.03 846 24.98 12.2 53.9 46 0.9 33.7
03:40 1017 30.03 846 24.98 12.1 53.8 46 0.8 33.4
03:45 1017 30.03 846 24.98 11.6 52.9 47 0.6 33.1
03:50 1017 30.03 846 24.98 12 53.6 43 -0.1 31.8
03:55 1017 30.03 846 24.98 12.7 54.9 43 0.5 32.9
04:00 1017 30.03 846 24.98 12.5 54.5 45 1 33.7
04:05 1017 30.03 846 24.98 11.8 53.2 47 0.9 33.6
04:10 1017 30.03 846 24.98 11.4 52.6 49 1 33.8
04:15 1017 30.03 846 24.98 11 51.9 50 1.2 34.1
04:20 1017 30.03 846 24.98 11 51.8 50 1 33.8
04:25 1017 30.03 846 24.98 11.2 52.2 48 0.6 33.1
04:30 1017 30.03 846 24.98 11.4 52.5 46 0.2 32.3
04:35 1017 30.03 846 24.98 11.5 52.8 47 0.5 33
04:40 1017 30.03 846 24.98 11.3 52.4 48 0.8 33.5
04:45 1017 30.03 846 24.98 10.7 51.3 53 1.6 34.8
04:50 1017 30.03 846 24.98 9.9 49.8 55 1.4 34.4
04:55 1017 30.03 846 24.98 9.8 49.7 52 0.6 33
05:00 1017 30.03 846 24.98 10.2 50.3 52 0.7 33.2
05:05 1017 30.03 846 24.98 10.4 50.7 50 0.5 33
05:10 1017 30.03 846 24.98 10.1 50.1 53 0.9 33.7
05:15 1017 30.03 846 24.98 9.8 49.6 54 1 33.9
05:20 1017 30.03 846 24.98 9.7 49.5 53 0.7 33.2
05:25 1017 30.03 846 24.98 9.9 49.9 53 0.9 33.7
05:30 1017 30.03 846 24.98 9.8 49.6 55 1.1 34.1
05:35 1017 30.03 846 24.98 9.6 49.3 54 0.9 33.6
05:40 1017 30.03 846 24.98 9.8 49.6 52 0.6 33
05:45 1017 30.03 846 24.98 10.4 50.7 49 0.1 32.3
05:50 1017 30.03 846 24.98 10.8 51.4 48 0.4 32.7
05:55 1017 30.03 846 24.98 10.8 51.4 49 0.6 33
06:00 1017 30.03 846 24.98 11 51.7 46 -0.1 31.8
06:05 1017 30.03 846 24.98 11.3 52.3 48 0.8 33.5
06:10 1017 30.03 846 24.98 10.8 51.4 48 0.3 32.6
06:15 1017 30.03 846 24.98 10.7 51.2 49 0.6 33.1
06:20 1017 30.03 846 24.98 10.5 50.9 49 0.3 32.5
06:25 1017 30.03 846 24.98 10.4 50.7 50 0.6 33
06:30 1017 30.03 846 24.98 10 50 52 0.5 33
06:35 1017 30.03 846 24.98 9.9 49.8 52 0.4 32.7
06:40 1017 30.03 846 24.98 9.9 49.9 51 0.2 32.4
06:45 1017 30.03 846 24.98 10 50 51 0.5 32.9
06:50 1017 30.03 846 24.98 9.7 49.4 54 0.9 33.7
06:55 1017 30.03 846 24.98 9.3 48.8 54 0.6 33.1
07:00 1017 30.03 846 24.98 9.4 49 52 0.1 32.3
07:05 1017 30.03 846 24.98 9.6 49.2 53 0.4 32.7
07:10 1017 30.03 847 25.01 9.6 49.3 52 0.3 32.6
07:15 1017 30.03 847 25.01 9.7 49.4 53 0.5 32.9
07:20 1017 30.03 847 25.01 9.7 49.5 53 0.5 32.9
07:25 1018 30.06 847 25.01 9.9 49.8 51 0.3 32.6
07:30 1018 30.06 847 25.01 10.3 50.5 50 0.4 32.7
07:35 1018 30.06 847 25.01 10.4 50.8 50 0.6 33.1
07:40 1018 30.06 847 25.01 10.6 51.1 51 0.8 33.5
07:45 1018 30.06 847 25.01 10.7 51.2 50 0.8 33.4
07:50 1018 30.06 847 25.01 10.9 51.5 50 1 33.8
07:55 1018 30.06 847 25.01 11.2 52.1 49 0.9 33.6
08:00 1018 30.06 847 25.01 11.5 52.7 47 0.7 33.3
08:05 1018 30.06 847 25.01 11.6 52.9 48 0.9 33.6
08:10 1018 30.06 847 25.01 11.9 53.3 47 0.9 33.5
08:15 1018 30.06 847 25.01 12.1 53.7 46 0.9 33.6
08:20 1018 30.06 847 25.01 12.4 54.4 45 1 33.9
08:25 1018 30.06 847 25.01 12.9 55.1 44 1 33.8
08:30 1018 30.06 847 25.01 12.9 55.1 45 1.3 34.4
08:35 1018 30.06 847 25.01 12.9 55.2 46 1.6 34.9
08:40 1018 30.06 847 25.01 13.2 55.8 46 2 35.6
08:45 1018 30.06 847 25.01 13.4 56 45 1.7 35.1
08:50 1018 30.06 847 25.01 13.9 57.1 44 1.8 35.3
08:55 1018 30.06 847 25.01 14.9 58.8 38 0.6 33.1
09:00 1018 30.06 847 25.01 15 59.1 40 1.5 34.7
09:05 1018 30.06 847 25.01 15.2 59.3 39 1.3 34.4
09:10 1018 30.06 847 25.01 15.8 60.5 35 0.5 32.9
09:15 1018 30.06 847 25.01 16.3 61.3 39 2.3 36.1
09:20 1018 30.06 847 25.01 16.6 61.9 35 1.4 34.5
09:25 1018 30.06 847 25.01 17.6 63.6 33 1.1 34.1
09:30 1018 30.06 847 25.01 18 64.5 32 1.1 33.9
09:35 1018 30.06 847 25.01 18.5 65.4 30 0.8 33.4
09:40 1017 30.03 847 25.01 19 66.3 30 1 33.8
09:45 1017 30.03 847 25.01 18.7 65.7 29 0.3 32.6
09:50 1017 30.03 847 25.01 18.7 65.6 27 -0.4 31.4
09:55 1018 30.06 847 25.01 18.7 65.7 28 -0.2 31.7
10:00 1018 30.06 847 25.01 18.8 65.9 27 -0.2 31.6
10:05 1018 30.06 847 25.01 19.1 66.4 27 -0.2 31.7
10:10 1018 30.06 847 25.01 19.1 66.4 27 -0.3 31.4
10:15 1018 30.06 847 25.01 18.9 66 27 -0.5 31.1
10:20 1018 30.06 847 25.01 19.5 67 26 -0.6 31
10:25 1018 30.06 847 25.01 19.6 67.3 28 0.6 33.1
10:30 1018 30.06 847 25.01 20.1 68.2 27 0.5 32.9
10:35 1018 30.06 847 25.01 20.2 68.3 28 1.2 34.2
10:40 1018 30.06 847 25.01 20.1 68.1 27 0.7 33.2
10:45 1018 30.06 847 25.01 20.2 68.3 26 0.3 32.6
10:50 1017 30.03 847 25.01 20.1 68.1 27 0.9 33.6
10:55 1017 30.03 847 25.01 20.4 68.7 27 1.1 34
11:00 1017 30.03 847 25.01 20.7 69.3 26 0.8 33.4
11:05 1017 30.03 847 25.01 21 69.8 26 0.8 33.5
11:10 1017 30.03 847 25.01 20.2 68.4 27 0.8 33.4
11:15 1017 30.03 847 25.01 20.7 69.2 26 0.5 32.9
11:20 1017 30.03 847 25.01 20.9 69.5 27 1.4 34.5
11:25 1017 30.03 847 25.01 20.4 68.7 27 0.8 33.5
11:30 1017 30.03 847 25.01 20.2 68.3 28 1 33.8
11:35 1017 30.03 847 25.01 20 68 27 0.5 32.9
11:40 1017 30.03 846 24.98 20.1 68.2 28 0.9 33.7
11:45 1017 30.03 846 24.98 20.5 68.8 27 1.2 34.1
11:50 1017 30.03 846 24.98 21 69.8 27 1.5 34.7
11:55 1017 30.03 846 24.98 20.9 69.6 28 2.1 35.8
12:00 1017 30.03 846 24.98 21.4 70.6 26 1.3 34.4
12:05 1017 30.03 846 24.98 21.8 71.2 24 0.8 33.4
12:10 1017 30.03 846 24.98 22 71.6 25 1.3 34.4
12:15 1017 30.03 846 24.98 21.9 71.4 24 0.7 33.3
12:20 1017 30.03 846 24.98 22 71.6 24 0.7 33.3
12:25 1017 30.03 846 24.98 22.1 71.8 25 1.3 34.3
12:30 1017 30.03 846 24.98 22.6 72.7 23 0.6 33
12:35 1017 30.03 846 24.98 22.4 72.3 25 1.4 34.5
12:40 1017 30.03 846 24.98 22.1 71.8 25 1.4 34.4
12:45 1017 30.03 846 24.98 22.4 72.2 23 0.5 32.9
12:50 1017 30.03 846 24.98 22.2 71.9 24 0.8 33.5
12:55 1017 30.03 846 24.98 21.4 70.6 26 1.5 34.7
13:00 1017 30.03 846 24.98 22 71.5 24 0.5 33
13:05 1017 30.03 846 24.98 22.7 72.8 23 0.6 33.1
13:10 1017 30.03 846 24.98 22.2 71.9 26 2.1 35.8
13:15 1016 30 846 24.98 22.2 71.9 24 1 33.8
13:20 1016 30 846 24.98 22.9 73.3 23 1.2 34.1
13:25 1016 30 846 24.98 22.9 73.2 24 1.7 35
13:30 1016 30 845 24.95 22.7 72.8 25 1.9 35.3
13:35 1016 30 845 24.95 23.1 73.6 24 1.8 35.2
13:40 1016 30 845 24.95 23.7 74.6 23 1.3 34.4
13:45 1016 30 845 24.95 23.4 74.1 25 2.6 36.7
13:50 1016 30 845 24.95 23.1 73.5 24 1.4 34.6
13:55 1016 30 845 24.95 23.5 74.2 22 0.8 33.5
14:00 1016 30 845 24.95 23.8 74.9 22 0.8 33.4
14:05 1016 30 845 24.95 24 75.2 22 1.1 33.9
14:10 1016 30 845 24.95 24.2 75.6 22 1.1 34
14:15 1016 30 845 24.95 23.9 74.9 23 1.9 35.5
14:20 1016 30 845 24.95 23.9 75 23 1.6 34.9
14:25 1016 30 845 24.95 24.4 76 21 1.2 34.1
14:30 1016 30 845 24.95 24.7 76.5 22 1.7 35
14:35 1016 30 845 24.95 24.4 75.9 23 1.9 35.4
14:40 1016 30 845 24.95 24.7 76.4 22 2.1 35.8
14:45 1016 30 845 24.95 25.1 77.2 22 1.9 35.5
14:50 1016 30 845 24.95 25.5 77.9 21 1.9 35.4
14:55 1015 29.97 845 24.95 25.4 77.7 19 0.6 33.2
15:00 1015 29.97 845 24.95 25.3 77.6 20 0.9 33.7
15:05 1015 29.97 845 24.95 23.9 75.1 21 0.2 32.3
15:10 1015 29.97 845 24.95 23.9 75 20 0 32
15:15 1015 29.97 844 24.92 24.9 76.8 19 0.2 32.4
15:20 1015 29.97 844 24.92 25.5 77.9 19 0.2 32.3
15:25 1015 29.97 844 24.92 25.4 77.7 19 0.5 32.9
15:30 1015 29.97 844 24.92 24.5 76 19 -0.1 31.7
15:35 1015 29.97 844 24.92 25 76.9 19 -0.2 31.6
15:40 1015 29.97 844 24.92 25.9 78.6 17 -0.8 30.6
15:45 1015 29.97 844 24.92 24.9 76.7 19 0.1 32.1
15:50 1015 29.97 844 24.92 25.8 78.5 19 0.6 33.1
15:55 1015 29.97 844 24.92 26.1 78.9 18 0.3 32.5
16:00 1015 29.97 844 24.92 26 78.8 18 0.2 32.4
16:05 1015 29.97 844 24.92 26 78.9 17 -0.6 31
16:10 1015 29.97 844 24.92 25.7 78.3 18 0 32.1
16:15 1015 29.97 844 24.92 26 78.7 18 0 32
16:20 1015 29.97 844 24.92 26.6 79.8 16 -0.8 30.5
16:25 1015 29.97 844 24.92 26.3 79.3 17 -0.1 31.9
16:30 1015 29.97 844 24.92 26.8 80.2 16 -0.8 30.5
16:35 1015 29.97 844 24.92 26.9 80.4 16 -0.9 30.4
16:40 1015 29.97 844 24.92 26.6 79.9 16 -0.9 30.4
16:45 1015 29.97 844 24.92 26.9 80.5 16 -0.6 30.9
16:50 1015 29.97 844 24.92 27.1 80.8 17 0.2 32.3
16:55 1015 29.97 844 24.92 25.8 78.4 18 -0 31.9
17:00 1015 29.97 844 24.92 25.7 78.2 20 1.1 34
17:05 1015 29.97 844 24.92 25.9 78.7 18 0.2 32.4
17:10 1015 29.97 844 24.92 25 77.1 18 -0.9 30.3
17:15 1015 29.97 844 24.92 25.1 77.1 16 -2.1 28.2
17:20 1015 29.97 844 24.92 25.2 77.3 16 -2.2 28.1
17:25 1015 29.97 844 24.92 25.3 77.5 19 0.1 32.1
17:30 1015 29.97 844 24.92 26 78.8 16 -1.7 29
17:35 1015 29.97 844 24.92 26 78.7 16 -1.8 28.8
17:40 1015 29.97 844 24.92 25.6 78 17 -1.1 30
17:45 1015 29.97 844 24.92 25.2 77.3 20 1 33.8
17:50 1015 29.97 844 24.92 24.5 76.1 21 0.7 33.3
17:55 1015 29.97 844 24.92 24.1 75.3 21 0.3 32.6
18:00 1015 29.97 844 24.92 23.9 75.1 21 0.8 33.4
18:05 1015 29.97 844 24.92 24 75.1 22 1.3 34.3
18:10 1015 29.97 844 24.92 23.9 75.1 22 1.2 34.1
18:15 1015 29.97 844 24.92 24 75.2 22 1 33.8
18:20 1015 29.97 844 24.92 23.8 74.9 24 2 35.6
18:25 1015 29.97 844 24.92 23.9 75 21 0.4 32.8
18:30 1015 29.97 844 24.92 23.9 75 22 0.8 33.5
18:35 1015 29.97 844 24.92 23.9 74.9 21 0.6 33
18:40 1015 29.97 844 24.92 23.7 74.7 21 0.2 32.3
18:45 1015 29.97 844 24.92 23.6 74.5 21 0.4 32.8
18:50 1015 29.97 844 24.92 23.6 74.4 21 0.3 32.5
18:55 1015 29.97 844 24.92 23.7 74.6 22 0.7 33.3
19:00 1015 29.97 844 24.92 23.9 75.1 20 -0.1 31.8
19:05 1015 29.97 844 24.92 23.9 75.1 19 -1.2 29.8
19:10 1015 29.97 844 24.92 23.9 74.9 19 -1.3 29.7
19:15 1015 29.97 844 24.92 23.8 74.8 20 -0.4 31.3
19:20 1015 29.97 844 24.92 23.9 75 19 -0.9 30.4
19:25 1015 29.97 844 24.92 24.1 75.4 20 -0.3 31.5
19:30 1015 29.97 844 24.92 24.3 75.7 20 -0.2 31.7
19:35 1015 29.97 844 24.92 24.3 75.7 20 0 32
19:40 1015 29.97 844 24.92 24.1 75.4 21 0.6 33
19:45 1015 29.97 844 24.92 23.9 74.9 23 1.8 35.2
19:50 1015 29.97 844 24.92 23.6 74.5 23 1.2 34.1
19:55 1015 29.97 845 24.95 23.5 74.2 22 1 33.9
20:00 1016 30 845 24.95 23.1 73.6 24 1.5 34.8
20:05 1016 30 845 24.95 22.8 73 23 0.8 33.5
20:10 1016 30 845 24.95 22.6 72.7 24 1.1 34
20:15 1016 30 845 24.95 22.4 72.3 25 1.4 34.4
20:20 1016 30 845 24.95 22.2 72 25 1.3 34.4
20:25 1016 30 845 24.95 22.1 71.8 25 1.5 34.7
20:30 1016 30 846 24.98 21.9 71.5 26 2 35.6
20:35 1016 30 846 24.98 21.7 71.1 26 1.7 35
20:40 1016 30 846 24.98 21.5 70.7 27 1.7 35.1
20:45 1017 30.03 846 24.98 21.3 70.4 27 2 35.6
20:50 1017 30.03 846 24.98 21 69.9 28 2 35.6
20:55 1017 30.03 846 24.98 20.8 69.5 28 1.8 35.3
21:00 1017 30.03 846 24.98 20.6 69.1 28 1.8 35.2
21:05 1017 30.03 846 24.98 20.6 69.1 28 1.8 35.3
21:10 1017 30.03 846 24.98 20.5 68.9 29 2.1 35.8
21:15 1017 30.03 846 24.98 20 68 32 2.8 37
21:20 1017 30.03 846 24.98 19.3 66.7 33 2.7 36.9
21:25 1017 30.03 847 25.01 19 66.3 32 2.3 36.1
21:30 1017 30.03 847 25.01 19 66.3 33 2.7 36.8
21:35 1018 30.06 847 25.01 18.9 65.9 33 2.2 36
21:40 1018 30.06 847 25.01 18.9 66 32 2 35.6
21:45 1018 30.06 847 25.01 18.9 66.1 32 2.1 35.8
21:50 1018 30.06 847 25.01 18.9 66 32 2.1 35.8
21:55 1018 30.06 847 25.01 18.8 65.9 32 1.9 35.4
22:00 1018 30.06 847 25.01 18.7 65.7 32 2 35.6
22:05 1018 30.06 847 25.01 18.8 65.8 32 1.8 35.2
22:10 1018 30.06 847 25.01 18.6 65.4 34 2.5 36.6
22:15 1018 30.06 847 25.01 18.4 65 33 2 35.6
22:20 1018 30.06 847 25.01 18.3 65 39 4.1 39.4
22:25 1018 30.06 847 25.01 18.3 64.9 34 2.2 35.9
22:30 1018 30.06 847 25.01 17.7 63.9 39 3.8 38.9
22:35 1018 30.06 847 25.01 17.6 63.6 35 2.2 36
22:40 1018 30.06 848 25.04 17.2 63 38 2.9 37.2
22:45 1018 30.06 848 25.04 16.9 62.4 37 2.2 36
22:50 1018 30.06 848 25.04 17.1 62.7 35 1.8 35.2
22:55 1019 30.09 848 25.04 17 62.6 42 4 39.3
23:00 1019 30.09 848 25.04 16.8 62.3 38 2.6 36.7
23:05 1019 30.09 848 25.04 17.5 63.4 40 3.9 39
23:10 1019 30.09 848 25.04 17.6 63.6 38 3.1 37.7
23:15 1019 30.09 848 25.04 17 62.5 37 2.3 36.1
23:20 1019 30.09 848 25.04 17 62.5 35 1.3 34.4
23:25 1019 30.09 848 25.04 17.1 62.7 37 2.4 36.3
23:30 1019 30.09 848 25.04 17.2 62.9 47 5.8 42.5
23:35 1019 30.09 848 25.04 17.2 63 49 6.5 43.7
23:40 1019 30.09 848 25.04 17.2 62.9 50 6.6 43.9
23:45 1019 30.09 848 25.04 17.1 62.8 50 6.6 43.9
23:50 1019 30.09 848 25.04 17 62.7 50 6.7 44.1
23:55 1019 30.09 848 25.04 17 62.6 50 6.7 44
24:00 1019 30.09 848 25.04 17 62.5 51 6.7 44.1